Terminal Aerodrome Forecast
Issued by NWS Memphis, TN

Home | Current Version | Previous Version | Text Only | Print | Product List | Glossary On
Versions: 1 2 3 4 5 6 7 8 9 10 11 12 13 14 15 16 17 18 19 20 21 22 23 24 25 26
000
FTUS44 KMEG 282331
TAFMEM
TAF
KMEM 282331Z 2900/2924 10004KT P6SM OVC070
     FM290400 12005KT P6SM SCT050
     FM290900 13006KT P6SM OVC035
     FM291500 16012G20KT P6SM OVC025
     FM292000 18012G20KT P6SM SCT035=

USA.gov is the U.S. government's official web portal to all federal, state and local government web resources and services.